sensor_id;sensor_type;location;lat;lon;timestamp;P1;durP1;ratioP1;P2;durP2;ratioP2
29534;SDS011;72082;52.650;8.116;2024-02-26T00:01:14;1.20;;;1.20;;
29534;SDS011;72082;52.650;8.116;2024-02-26T00:03:39;1.43;;;1.43;;
29534;SDS011;72082;52.650;8.116;2024-02-26T00:06:04;2.23;;;2.10;;
29534;SDS011;72082;52.650;8.116;2024-02-26T00:08:30;2.27;;;1.43;;
29534;SDS011;72082;52.650;8.116;2024-02-26T00:10:55;1.57;;;1.57;;
29534;SDS011;72082;52.650;8.116;2024-02-26T00:13:20;1.17;;;1.17;;
29534;SDS011;72082;52.650;8.116;2024-02-26T00:15:45;1.23;;;1.23;;
29534;SDS011;72082;52.650;8.116;2024-02-26T00:18:11;1.50;;;1.50;;
29534;SDS011;72082;52.650;8.116;2024-02-26T00:20:36;1.43;;;1.43;;
29534;SDS011;72082;52.650;8.116;2024-02-26T00:23:01;2.70;;;2.60;;
29534;SDS011;72082;52.650;8.116;2024-02-26T00:25:26;1.60;;;1.50;;
29534;SDS011;72082;52.650;8.116;2024-02-26T00:27:52;1.20;;;1.20;;
29534;SDS011;72082;52.650;8.116;2024-02-26T00:30:17;1.23;;;1.23;;
29534;SDS011;72082;52.650;8.116;2024-02-26T00:32:42;1.00;;;1.00;;
29534;SDS011;72082;52.650;8.116;2024-02-26T00:35:08;1.40;;;1.40;;
29534;SDS011;72082;52.650;8.116;2024-02-26T00:37:33;1.47;;;1.30;;
29534;SDS011;72082;52.650;8.116;2024-02-26T00:39:58;1.27;;;0.97;;
29534;SDS011;72082;52.650;8.116;2024-02-26T00:42:23;1.33;;;1.33;;
29534;SDS011;72082;52.650;8.116;2024-02-26T00:44:49;1.10;;;1.10;;
29534;SDS011;72082;52.650;8.116;2024-02-26T00:47:14;4.63;;;1.60;;
29534;SDS011;72082;52.650;8.116;2024-02-26T00:49:39;1.93;;;1.93;;
29534;SDS011;72082;52.650;8.116;2024-02-26T00:52:04;1.23;;;1.23;;
29534;SDS011;72082;52.650;8.116;2024-02-26T00:54:30;1.93;;;1.30;;
29534;SDS011;72082;52.650;8.116;2024-02-26T00:56:55;0.80;;;0.80;;
29534;SDS011;72082;52.650;8.116;2024-02-26T00:59:20;1.37;;;1.33;;
29534;SDS011;72082;52.650;8.116;2024-02-26T01:01:46;1.30;;;1.30;;
29534;SDS011;72082;52.650;8.116;2024-02-26T01:04:11;1.67;;;1.63;;
29534;SDS011;72082;52.650;8.116;2024-02-26T01:06:36;2.00;;;1.93;;
29534;SDS011;72082;52.650;8.116;2024-02-26T01:09:01;2.00;;;1.90;;
29534;SDS011;72082;52.650;8.116;2024-02-26T01:11:28;2.40;;;1.30;;
29534;SDS011;72082;52.650;8.116;2024-02-26T01:13:53;1.25;;;1.25;;
29534;SDS011;72082;52.650;8.116;2024-02-26T01:16:18;1.53;;;1.53;;
29534;SDS011;72082;52.650;8.116;2024-02-26T01:18:44;1.70;;;1.60;;
29534;SDS011;72082;52.650;8.116;2024-02-26T01:21:09;2.50;;;2.30;;
29534;SDS011;72082;52.650;8.116;2024-02-26T01:23:34;1.07;;;1.07;;
29534;SDS011;72082;52.650;8.116;2024-02-26T01:26:00;1.93;;;1.93;;
29534;SDS011;72082;52.650;8.116;2024-02-26T01:28:25;1.33;;;1.33;;
29534;SDS011;72082;52.650;8.116;2024-02-26T01:30:50;1.13;;;1.13;;
29534;SDS011;72082;52.650;8.116;2024-02-26T01:33:15;1.30;;;1.30;;
29534;SDS011;72082;52.650;8.116;2024-02-26T01:35:40;2.03;;;1.70;;
29534;SDS011;72082;52.650;8.116;2024-02-26T01:38:06;2.13;;;1.80;;
29534;SDS011;72082;52.650;8.116;2024-02-26T01:40:31;2.43;;;2.30;;
29534;SDS011;72082;52.650;8.116;2024-02-26T01:42:56;3.60;;;1.33;;
29534;SDS011;72082;52.650;8.116;2024-02-26T01:45:21;1.10;;;1.10;;
29534;SDS011;72082;52.650;8.116;2024-02-26T01:47:48;1.03;;;1.03;;
29534;SDS011;72082;52.650;8.116;2024-02-26T01:50:15;1.23;;;1.23;;
29534;SDS011;72082;52.650;8.116;2024-02-26T01:52:41;2.00;;;1.90;;
29534;SDS011;72082;52.650;8.116;2024-02-26T01:55:07;1.03;;;1.03;;
29534;SDS011;72082;52.650;8.116;2024-02-26T01:57:33;1.33;;;1.30;;
29534;SDS011;72082;52.650;8.116;2024-02-26T01:59:58;1.57;;;1.57;;
29534;SDS011;72082;52.650;8.116;2024-02-26T02:02:23;1.00;;;1.00;;
29534;SDS011;72082;52.650;8.116;2024-02-26T02:04:49;0.90;;;0.90;;
29534;SDS011;72082;52.650;8.116;2024-02-26T02:07:16;1.17;;;1.17;;
29534;SDS011;72082;52.650;8.116;2024-02-26T02:09:41;2.40;;;2.00;;
29534;SDS011;72082;52.650;8.116;2024-02-26T02:12:07;1.07;;;1.07;;
29534;SDS011;72082;52.650;8.116;2024-02-26T02:14:33;1.02;;;1.02;;
29534;SDS011;72082;52.650;8.116;2024-02-26T02:16:58;0.93;;;0.93;;
29534;SDS011;72082;52.650;8.116;2024-02-26T02:19:24;1.40;;;1.40;;
29534;SDS011;72082;52.650;8.116;2024-02-26T02:21:49;1.30;;;1.20;;
29534;SDS011;72082;52.650;8.116;2024-02-26T02:24:14;1.27;;;1.27;;
29534;SDS011;72082;52.650;8.116;2024-02-26T02:26:39;3.73;;;1.57;;
29534;SDS011;72082;52.650;8.116;2024-02-26T02:29:05;1.23;;;1.13;;
29534;SDS011;72082;52.650;8.116;2024-02-26T02:31:31;1.63;;;1.52;;
29534;SDS011;72082;52.650;8.116;2024-02-26T02:33:57;2.40;;;1.97;;
29534;SDS011;72082;52.650;8.116;2024-02-26T02:36:23;1.30;;;1.20;;
29534;SDS011;72082;52.650;8.116;2024-02-26T02:38:48;0.80;;;0.80;;
29534;SDS011;72082;52.650;8.116;2024-02-26T02:41:14;2.25;;;2.05;;
29534;SDS011;72082;52.650;8.116;2024-02-26T02:43:40;1.10;;;1.10;;
29534;SDS011;72082;52.650;8.116;2024-02-26T02:46:05;2.03;;;1.87;;
29534;SDS011;72082;52.650;8.116;2024-02-26T02:48:30;0.80;;;0.80;;
29534;SDS011;72082;52.650;8.116;2024-02-26T02:50:55;0.90;;;0.90;;
29534;SDS011;72082;52.650;8.116;2024-02-26T02:53:21;3.53;;;1.90;;
29534;SDS011;72082;52.650;8.116;2024-02-26T02:55:46;1.40;;;1.40;;
29534;SDS011;72082;52.650;8.116;2024-02-26T02:58:11;1.43;;;1.33;;
29534;SDS011;72082;52.650;8.116;2024-02-26T03:00:36;1.10;;;1.10;;
29534;SDS011;72082;52.650;8.116;2024-02-26T03:03:02;1.73;;;1.67;;
29534;SDS011;72082;52.650;8.116;2024-02-26T03:05:27;1.40;;;1.30;;
29534;SDS011;72082;52.650;8.116;2024-02-26T03:07:52;0.90;;;0.90;;
29534;SDS011;72082;52.650;8.116;2024-02-26T03:10:17;3.23;;;1.80;;
29534;SDS011;72082;52.650;8.116;2024-02-26T03:12:43;0.80;;;0.80;;
29534;SDS011;72082;52.650;8.116;2024-02-26T03:15:08;2.90;;;2.00;;
29534;SDS011;72082;52.650;8.116;2024-02-26T03:17:34;1.10;;;1.10;;
29534;SDS011;72082;52.650;8.116;2024-02-26T03:19:59;2.13;;;2.03;;
29534;SDS011;72082;52.650;8.116;2024-02-26T03:22:24;1.93;;;1.83;;
29534;SDS011;72082;52.650;8.116;2024-02-26T03:24:49;1.50;;;1.40;;
29534;SDS011;72082;52.650;8.116;2024-02-26T03:27:15;1.53;;;1.50;;
29534;SDS011;72082;52.650;8.116;2024-02-26T03:29:40;1.23;;;1.23;;
29534;SDS011;72082;52.650;8.116;2024-02-26T03:32:06;1.27;;;1.00;;
29534;SDS011;72082;52.650;8.116;2024-02-26T03:34:31;1.50;;;1.43;;
29534;SDS011;72082;52.650;8.116;2024-02-26T03:36:57;1.38;;;1.38;;
29534;SDS011;72082;52.650;8.116;2024-02-26T03:39:23;1.43;;;1.33;;
29534;SDS011;72082;52.650;8.116;2024-02-26T03:41:48;1.63;;;1.53;;
29534;SDS011;72082;52.650;8.116;2024-02-26T03:44:13;0.97;;;0.97;;
29534;SDS011;72082;52.650;8.116;2024-02-26T03:46:39;1.77;;;1.67;;
29534;SDS011;72082;52.650;8.116;2024-02-26T03:49:04;1.83;;;1.17;;
29534;SDS011;72082;52.650;8.116;2024-02-26T03:51:29;1.30;;;1.30;;
29534;SDS011;72082;52.650;8.116;2024-02-26T03:53:55;1.20;;;1.20;;
29534;SDS011;72082;52.650;8.116;2024-02-26T03:56:20;3.90;;;1.63;;
29534;SDS011;72082;52.650;8.116;2024-02-26T03:58:45;2.20;;;2.00;;
29534;SDS011;72082;52.650;8.116;2024-02-26T04:01:10;1.70;;;1.70;;
29534;SDS011;72082;52.650;8.116;2024-02-26T04:03:35;0.80;;;0.80;;
29534;SDS011;72082;52.650;8.116;2024-02-26T04:06:01;1.77;;;1.67;;
29534;SDS011;72082;52.650;8.116;2024-02-26T04:08:27;2.50;;;2.30;;
29534;SDS011;72082;52.650;8.116;2024-02-26T04:10:52;1.00;;;1.00;;
29534;SDS011;72082;52.650;8.116;2024-02-26T04:13:18;1.63;;;1.43;;
29534;SDS011;72082;52.650;8.116;2024-02-26T04:15:43;1.00;;;1.00;;
29534;SDS011;72082;52.650;8.116;2024-02-26T04:18:08;1.40;;;1.40;;
29534;SDS011;72082;52.650;8.116;2024-02-26T04:20:34;1.70;;;1.60;;
29534;SDS011;72082;52.650;8.116;2024-02-26T04:22:59;1.73;;;1.63;;
29534;SDS011;72082;52.650;8.116;2024-02-26T04:25:24;2.63;;;2.53;;
29534;SDS011;72082;52.650;8.116;2024-02-26T04:27:50;1.43;;;1.43;;
29534;SDS011;72082;52.650;8.116;2024-02-26T04:30:15;1.10;;;1.10;;
29534;SDS011;72082;52.650;8.116;2024-02-26T04:32:40;2.50;;;1.17;;
29534;SDS011;72082;52.650;8.116;2024-02-26T04:35:05;1.20;;;1.20;;
29534;SDS011;72082;52.650;8.116;2024-02-26T04:37:31;0.93;;;0.93;;
29534;SDS011;72082;52.650;8.116;2024-02-26T04:39:57;2.60;;;2.17;;
29534;SDS011;72082;52.650;8.116;2024-02-26T04:42:23;1.05;;;1.00;;
29534;SDS011;72082;52.650;8.116;2024-02-26T04:44:49;1.97;;;1.90;;
29534;SDS011;72082;52.650;8.116;2024-02-26T04:47:14;1.67;;;1.63;;
29534;SDS011;72082;52.650;8.116;2024-02-26T04:49:39;2.13;;;2.03;;
29534;SDS011;72082;52.650;8.116;2024-02-26T04:52:04;1.97;;;1.87;;
29534;SDS011;72082;52.650;8.116;2024-02-26T04:54:30;1.80;;;1.80;;
29534;SDS011;72082;52.650;8.116;2024-02-26T04:56:55;1.63;;;1.53;;
29534;SDS011;72082;52.650;8.116;2024-02-26T04:59:20;1.23;;;1.23;;
29534;SDS011;72082;52.650;8.116;2024-02-26T05:01:46;2.13;;;2.03;;
29534;SDS011;72082;52.650;8.116;2024-02-26T05:04:11;0.80;;;0.80;;
29534;SDS011;72082;52.650;8.116;2024-02-26T05:06:36;3.47;;;3.27;;
29534;SDS011;72082;52.650;8.116;2024-02-26T05:09:02;1.57;;;1.57;;
29534;SDS011;72082;52.650;8.116;2024-02-26T05:11:27;1.77;;;1.33;;
29534;SDS011;72082;52.650;8.116;2024-02-26T05:13:52;1.80;;;1.73;;
29534;SDS011;72082;52.650;8.116;2024-02-26T05:16:17;2.73;;;1.50;;
29534;SDS011;72082;52.650;8.116;2024-02-26T05:18:43;4.47;;;1.67;;
29534;SDS011;72082;52.650;8.116;2024-02-26T05:21:08;1.87;;;1.87;;
29534;SDS011;72082;52.650;8.116;2024-02-26T05:23:33;3.70;;;2.73;;
29534;SDS011;72082;52.650;8.116;2024-02-26T05:25:58;1.40;;;1.40;;
29534;SDS011;72082;52.650;8.116;2024-02-26T05:28:24;2.20;;;2.10;;
29534;SDS011;72082;52.650;8.116;2024-02-26T05:30:49;2.00;;;1.97;;
29534;SDS011;72082;52.650;8.116;2024-02-26T05:33:14;2.70;;;2.60;;
29534;SDS011;72082;52.650;8.116;2024-02-26T05:35:39;1.67;;;1.67;;
29534;SDS011;72082;52.650;8.116;2024-02-26T05:38:05;2.30;;;2.13;;
29534;SDS011;72082;52.650;8.116;2024-02-26T05:40:30;2.93;;;2.73;;
29534;SDS011;72082;52.650;8.116;2024-02-26T05:42:55;2.13;;;1.97;;
29534;SDS011;72082;52.650;8.116;2024-02-26T05:45:21;1.53;;;1.53;;
29534;SDS011;72082;52.650;8.116;2024-02-26T05:47:46;1.50;;;1.50;;
29534;SDS011;72082;52.650;8.116;2024-02-26T05:50:11;1.53;;;1.47;;
29534;SDS011;72082;52.650;8.116;2024-02-26T05:52:37;2.23;;;2.13;;
29534;SDS011;72082;52.650;8.116;2024-02-26T05:55:02;2.17;;;2.10;;
29534;SDS011;72082;52.650;8.116;2024-02-26T05:57:28;1.30;;;1.30;;
29534;SDS011;72082;52.650;8.116;2024-02-26T05:59:53;2.80;;;2.70;;
29534;SDS011;72082;52.650;8.116;2024-02-26T06:02:18;2.10;;;2.00;;
29534;SDS011;72082;52.650;8.116;2024-02-26T06:04:44;2.40;;;2.20;;
29534;SDS011;72082;52.650;8.116;2024-02-26T06:07:09;2.87;;;2.60;;
29534;SDS011;72082;52.650;8.116;2024-02-26T06:09:34;1.57;;;1.47;;
29534;SDS011;72082;52.650;8.116;2024-02-26T06:12:00;2.50;;;2.27;;
29534;SDS011;72082;52.650;8.116;2024-02-26T06:14:25;2.20;;;2.03;;
29534;SDS011;72082;52.650;8.116;2024-02-26T06:16:50;2.23;;;2.03;;
29534;SDS011;72082;52.650;8.116;2024-02-26T06:19:15;2.40;;;2.30;;
29534;SDS011;72082;52.650;8.116;2024-02-26T06:21:40;1.93;;;1.90;;
29534;SDS011;72082;52.650;8.116;2024-02-26T06:24:06;5.37;;;2.20;;
29534;SDS011;72082;52.650;8.116;2024-02-26T06:26:31;6.90;;;2.47;;
29534;SDS011;72082;52.650;8.116;2024-02-26T06:28:56;2.20;;;2.07;;
29534;SDS011;72082;52.650;8.116;2024-02-26T06:31:22;1.60;;;1.50;;
29534;SDS011;72082;52.650;8.116;2024-02-26T06:33:48;3.03;;;2.75;;
29534;SDS011;72082;52.650;8.116;2024-02-26T06:36:15;2.13;;;2.07;;
29534;SDS011;72082;52.650;8.116;2024-02-26T06:38:40;2.25;;;2.15;;
29534;SDS011;72082;52.650;8.116;2024-02-26T06:41:06;2.30;;;2.10;;
29534;SDS011;72082;52.650;8.116;2024-02-26T06:43:31;2.83;;;2.63;;
29534;SDS011;72082;52.650;8.116;2024-02-26T06:45:56;2.63;;;2.33;;
29534;SDS011;72082;52.650;8.116;2024-02-26T06:48:23;1.47;;;1.47;;
29534;SDS011;72082;52.650;8.116;2024-02-26T06:50:49;1.70;;;1.60;;
29534;SDS011;72082;52.650;8.116;2024-02-26T06:53:14;2.13;;;1.90;;
29534;SDS011;72082;52.650;8.116;2024-02-26T06:55:39;3.33;;;3.13;;
29534;SDS011;72082;52.650;8.116;2024-02-26T06:58:04;5.53;;;3.83;;
29534;SDS011;72082;52.650;8.116;2024-02-26T07:00:30;3.47;;;2.00;;
29534;SDS011;72082;52.650;8.116;2024-02-26T07:02:55;1.27;;;1.27;;
29534;SDS011;72082;52.650;8.116;2024-02-26T07:05:20;1.70;;;1.70;;
29534;SDS011;72082;52.650;8.116;2024-02-26T07:07:45;10.03;;;3.37;;
29534;SDS011;72082;52.650;8.116;2024-02-26T07:10:10;2.03;;;1.97;;
29534;SDS011;72082;52.650;8.116;2024-02-26T07:12:36;2.33;;;2.13;;
29534;SDS011;72082;52.650;8.116;2024-02-26T07:15:01;2.80;;;2.70;;
29534;SDS011;72082;52.650;8.116;2024-02-26T07:17:26;1.30;;;1.30;;
29534;SDS011;72082;52.650;8.116;2024-02-26T07:19:52;2.10;;;1.53;;
29534;SDS011;72082;52.650;8.116;2024-02-26T07:22:17;1.20;;;1.20;;
29534;SDS011;72082;52.650;8.116;2024-02-26T07:24:42;3.33;;;3.03;;
29534;SDS011;72082;52.650;8.116;2024-02-26T07:27:07;2.80;;;1.30;;
29534;SDS011;72082;52.650;8.116;2024-02-26T07:29:33;1.80;;;1.70;;
29534;SDS011;72082;52.650;8.116;2024-02-26T07:31:58;3.17;;;1.93;;
29534;SDS011;72082;52.650;8.116;2024-02-26T07:34:23;3.80;;;1.73;;
29534;SDS011;72082;52.650;8.116;2024-02-26T07:36:48;2.20;;;2.10;;
29534;SDS011;72082;52.650;8.116;2024-02-26T07:39:14;1.90;;;1.83;;
29534;SDS011;72082;52.650;8.116;2024-02-26T07:41:39;2.63;;;2.50;;
29534;SDS011;72082;52.650;8.116;2024-02-26T07:44:04;1.90;;;1.87;;
29534;SDS011;72082;52.650;8.116;2024-02-26T07:46:29;2.20;;;2.10;;
29534;SDS011;72082;52.650;8.116;2024-02-26T07:48:54;2.83;;;2.63;;
29534;SDS011;72082;52.650;8.116;2024-02-26T07:51:20;1.97;;;1.97;;
29534;SDS011;72082;52.650;8.116;2024-02-26T07:53:45;2.33;;;2.23;;
29534;SDS011;72082;52.650;8.116;2024-02-26T07:56:10;2.43;;;2.10;;
29534;SDS011;72082;52.650;8.116;2024-02-26T07:58:36;1.43;;;1.33;;
29534;SDS011;72082;52.650;8.116;2024-02-26T08:01:01;1.70;;;1.50;;
29534;SDS011;72082;52.650;8.116;2024-02-26T08:03:26;2.57;;;2.47;;
29534;SDS011;72082;52.650;8.116;2024-02-26T08:05:52;2.57;;;2.37;;
29534;SDS011;72082;52.650;8.116;2024-02-26T08:08:17;1.70;;;1.70;;
29534;SDS011;72082;52.650;8.116;2024-02-26T08:10:42;1.77;;;1.50;;
29534;SDS011;72082;52.650;8.116;2024-02-26T08:13:08;2.73;;;2.53;;
29534;SDS011;72082;52.650;8.116;2024-02-26T08:15:34;2.97;;;2.43;;
29534;SDS011;72082;52.650;8.116;2024-02-26T08:18:00;2.45;;;2.30;;
29534;SDS011;72082;52.650;8.116;2024-02-26T08:20:26;2.55;;;2.03;;
29534;SDS011;72082;52.650;8.116;2024-02-26T08:22:51;2.20;;;2.03;;
29534;SDS011;72082;52.650;8.116;2024-02-26T08:25:17;3.47;;;3.17;;
29534;SDS011;72082;52.650;8.116;2024-02-26T08:27:42;3.93;;;3.20;;
29534;SDS011;72082;52.650;8.116;2024-02-26T08:30:07;2.17;;;2.07;;
29534;SDS011;72082;52.650;8.116;2024-02-26T08:32:33;3.03;;;2.63;;
29534;SDS011;72082;52.650;8.116;2024-02-26T08:34:58;2.47;;;2.30;;
29534;SDS011;72082;52.650;8.116;2024-02-26T08:37:23;2.40;;;2.30;;
29534;SDS011;72082;52.650;8.116;2024-02-26T08:39:50;4.63;;;2.67;;
29534;SDS011;72082;52.650;8.116;2024-02-26T08:42:15;2.05;;;1.95;;
29534;SDS011;72082;52.650;8.116;2024-02-26T08:44:40;3.80;;;3.50;;
29534;SDS011;72082;52.650;8.116;2024-02-26T08:47:06;3.43;;;3.10;;
29534;SDS011;72082;52.650;8.116;2024-02-26T08:49:31;4.10;;;3.80;;
29534;SDS011;72082;52.650;8.116;2024-02-26T08:51:56;3.50;;;3.20;;
29534;SDS011;72082;52.650;8.116;2024-02-26T08:54:21;4.17;;;2.23;;
29534;SDS011;72082;52.650;8.116;2024-02-26T08:56:46;2.00;;;1.90;;
29534;SDS011;72082;52.650;8.116;2024-02-26T08:59:12;3.00;;;2.80;;
29534;SDS011;72082;52.650;8.116;2024-02-26T09:01:37;6.43;;;2.70;;
29534;SDS011;72082;52.650;8.116;2024-02-26T09:04:02;1.70;;;1.70;;
29534;SDS011;72082;52.650;8.116;2024-02-26T09:06:28;4.13;;;3.93;;
29534;SDS011;72082;52.650;8.116;2024-02-26T09:08:53;4.27;;;3.90;;
29534;SDS011;72082;52.650;8.116;2024-02-26T09:11:18;4.03;;;3.73;;
29534;SDS011;72082;52.650;8.116;2024-02-26T09:13:43;4.60;;;4.27;;
29534;SDS011;72082;52.650;8.116;2024-02-26T09:16:08;4.70;;;2.70;;
29534;SDS011;72082;52.650;8.116;2024-02-26T09:18:34;12.13;;;5.90;;
29534;SDS011;72082;52.650;8.116;2024-02-26T09:20:59;4.20;;;3.70;;
29534;SDS011;72082;52.650;8.116;2024-02-26T09:23:24;6.17;;;3.70;;
29534;SDS011;72082;52.650;8.116;2024-02-26T09:25:49;3.73;;;3.47;;
29534;SDS011;72082;52.650;8.116;2024-02-26T09:28:15;4.40;;;4.13;;
29534;SDS011;72082;52.650;8.116;2024-02-26T09:30:40;2.37;;;2.30;;
29534;SDS011;72082;52.650;8.116;2024-02-26T09:33:05;5.03;;;2.47;;
29534;SDS011;72082;52.650;8.116;2024-02-26T09:35:30;2.87;;;2.73;;
29534;SDS011;72082;52.650;8.116;2024-02-26T09:37:56;4.63;;;4.23;;
29534;SDS011;72082;52.650;8.116;2024-02-26T09:40:21;3.13;;;2.93;;
29534;SDS011;72082;52.650;8.116;2024-02-26T09:42:46;4.17;;;3.73;;
29534;SDS011;72082;52.650;8.116;2024-02-26T09:45:12;4.33;;;3.40;;
29534;SDS011;72082;52.650;8.116;2024-02-26T09:47:47;7.60;;;2.95;;
29534;SDS011;72082;52.650;8.116;2024-02-26T09:50:13;4.20;;;3.50;;
29534;SDS011;72082;52.650;8.116;2024-02-26T09:52:41;3.92;;;3.63;;
29534;SDS011;72082;52.650;8.116;2024-02-26T09:55:08;3.53;;;3.28;;
29534;SDS011;72082;52.650;8.116;2024-02-26T09:57:34;5.47;;;3.07;;
29534;SDS011;72082;52.650;8.116;2024-02-26T10:00:02;3.20;;;2.92;;
29534;SDS011;72082;52.650;8.116;2024-02-26T10:02:28;4.95;;;3.92;;
29534;SDS011;72082;52.650;8.116;2024-02-26T10:04:55;4.95;;;4.47;;
29534;SDS011;72082;52.650;8.116;2024-02-26T10:07:22;6.60;;;4.43;;
29534;SDS011;72082;52.650;8.116;2024-02-26T10:09:47;6.13;;;4.63;;
29534;SDS011;72082;52.650;8.116;2024-02-26T10:12:12;3.50;;;3.20;;
29534;SDS011;72082;52.650;8.116;2024-02-26T10:14:39;4.20;;;3.80;;
29534;SDS011;72082;52.650;8.116;2024-02-26T10:17:06;10.23;;;6.43;;
29534;SDS011;72082;52.650;8.116;2024-02-26T10:19:32;3.70;;;3.42;;
29534;SDS011;72082;52.650;8.116;2024-02-26T10:21:57;3.50;;;3.20;;
29534;SDS011;72082;52.650;8.116;2024-02-26T10:24:27;9.43;;;4.38;;
29534;SDS011;72082;52.650;8.116;2024-02-26T10:26:54;5.20;;;3.78;;
29534;SDS011;72082;52.650;8.116;2024-02-26T10:29:20;4.63;;;3.80;;
29534;SDS011;72082;52.650;8.116;2024-02-26T10:31:46;8.10;;;4.97;;
29534;SDS011;72082;52.650;8.116;2024-02-26T10:34:11;6.90;;;3.73;;
29534;SDS011;72082;52.650;8.116;2024-02-26T10:36:36;2.30;;;2.20;;
29534;SDS011;72082;52.650;8.116;2024-02-26T10:39:03;6.17;;;3.77;;
29534;SDS011;72082;52.650;8.116;2024-02-26T10:41:30;7.53;;;5.15;;
29534;SDS011;72082;52.650;8.116;2024-02-26T10:43:55;3.67;;;3.37;;
29534;SDS011;72082;52.650;8.116;2024-02-26T10:46:20;12.73;;;5.60;;
29534;SDS011;72082;52.650;8.116;2024-02-26T10:48:49;4.87;;;4.47;;
29534;SDS011;72082;52.650;8.116;2024-02-26T10:51:15;2.33;;;2.22;;
29534;SDS011;72082;52.650;8.116;2024-02-26T10:53:45;4.38;;;3.97;;
29534;SDS011;72082;52.650;8.116;2024-02-26T10:56:12;6.72;;;3.75;;
29534;SDS011;72082;52.650;8.116;2024-02-26T10:58:40;6.50;;;5.15;;
29534;SDS011;72082;52.650;8.116;2024-02-26T11:01:07;3.67;;;3.42;;
29534;SDS011;72082;52.650;8.116;2024-02-26T11:03:34;5.30;;;4.82;;
29534;SDS011;72082;52.650;8.116;2024-02-26T11:06:01;3.67;;;3.42;;
29534;SDS011;72082;52.650;8.116;2024-02-26T11:08:28;6.57;;;4.35;;
29534;SDS011;72082;52.650;8.116;2024-02-26T11:10:55;7.00;;;3.45;;
29534;SDS011;72082;52.650;8.116;2024-02-26T11:13:21;8.85;;;4.90;;
29534;SDS011;72082;52.650;8.116;2024-02-26T11:15:50;8.73;;;5.10;;
29534;SDS011;72082;52.650;8.116;2024-02-26T11:18:17;2.40;;;2.30;;
29534;SDS011;72082;52.650;8.116;2024-02-26T11:20:44;4.38;;;3.05;;
29534;SDS011;72082;52.650;8.116;2024-02-26T11:23:11;5.90;;;3.70;;
29534;SDS011;72082;52.650;8.116;2024-02-26T11:25:36;2.10;;;2.10;;
29534;SDS011;72082;52.650;8.116;2024-02-26T11:28:04;6.70;;;4.63;;
29534;SDS011;72082;52.650;8.116;2024-02-26T11:30:32;4.82;;;3.63;;
29534;SDS011;72082;52.650;8.116;2024-02-26T11:33:00;4.15;;;3.15;;
29534;SDS011;72082;52.650;8.116;2024-02-26T11:35:25;3.27;;;3.07;;
29534;SDS011;72082;52.650;8.116;2024-02-26T11:37:54;3.70;;;3.13;;
29534;SDS011;72082;52.650;8.116;2024-02-26T11:40:20;3.90;;;3.65;;
29534;SDS011;72082;52.650;8.116;2024-02-26T11:42:48;3.78;;;3.47;;
29534;SDS011;72082;52.650;8.116;2024-02-26T11:48:03;3.78;;;3.47;;
29534;SDS011;72082;52.650;8.116;2024-02-26T11:50:36;4.10;;;3.80;;
29534;SDS011;72082;52.650;8.116;2024-02-26T11:58:39;5.00;;;3.33;;
29534;SDS011;72082;52.650;8.116;2024-02-26T12:01:05;4.93;;;4.17;;
29534;SDS011;72082;52.650;8.116;2024-02-26T12:03:31;5.00;;;3.17;;
29534;SDS011;72082;52.650;8.116;2024-02-26T12:05:56;5.37;;;3.90;;
29534;SDS011;72082;52.650;8.116;2024-02-26T12:08:21;6.80;;;3.97;;
29534;SDS011;72082;52.650;8.116;2024-02-26T12:10:47;2.53;;;2.37;;
29534;SDS011;72082;52.650;8.116;2024-02-26T12:13:13;6.60;;;5.60;;
29534;SDS011;72082;52.650;8.116;2024-02-26T12:15:41;4.93;;;3.50;;
29534;SDS011;72082;52.650;8.116;2024-02-26T12:18:07;4.05;;;3.67;;
29534;SDS011;72082;52.650;8.116;2024-02-26T12:20:35;2.58;;;2.30;;
29534;SDS011;72082;52.650;8.116;2024-02-26T12:23:00;3.00;;;2.67;;
29534;SDS011;72082;52.650;8.116;2024-02-26T12:25:28;3.03;;;2.83;;
29534;SDS011;72082;52.650;8.116;2024-02-26T12:27:54;3.90;;;3.60;;
29534;SDS011;72082;52.650;8.116;2024-02-26T12:30:20;5.60;;;4.70;;
29534;SDS011;72082;52.650;8.116;2024-02-26T12:32:46;5.67;;;3.83;;
29534;SDS011;72082;52.650;8.116;2024-02-26T12:35:13;7.25;;;4.05;;
29534;SDS011;72082;52.650;8.116;2024-02-26T12:37:39;2.30;;;2.13;;
29534;SDS011;72082;52.650;8.116;2024-02-26T12:40:05;1.97;;;1.87;;
29534;SDS011;72082;52.650;8.116;2024-02-26T12:42:32;2.83;;;2.60;;
29534;SDS011;72082;52.650;8.116;2024-02-26T12:44:57;4.05;;;3.35;;
29534;SDS011;72082;52.650;8.116;2024-02-26T12:47:23;17.50;;;3.97;;
29534;SDS011;72082;52.650;8.116;2024-02-26T12:49:48;7.70;;;2.80;;
29534;SDS011;72082;52.650;8.116;2024-02-26T12:52:14;3.90;;;3.70;;
29534;SDS011;72082;52.650;8.116;2024-02-26T12:54:41;3.10;;;2.90;;
29534;SDS011;72082;52.650;8.116;2024-02-26T12:57:07;3.30;;;3.00;;
29534;SDS011;72082;52.650;8.116;2024-02-26T12:59:34;6.87;;;3.87;;
29534;SDS011;72082;52.650;8.116;2024-02-26T13:02:00;3.33;;;3.10;;
29534;SDS011;72082;52.650;8.116;2024-02-26T13:04:27;5.17;;;3.67;;
29534;SDS011;72082;52.650;8.116;2024-02-26T13:06:54;4.20;;;3.63;;
29534;SDS011;72082;52.650;8.116;2024-02-26T13:09:20;4.50;;;2.87;;
29534;SDS011;72082;52.650;8.116;2024-02-26T13:11:45;4.97;;;4.30;;
29534;SDS011;72082;52.650;8.116;2024-02-26T13:14:20;2.60;;;2.50;;
29534;SDS011;72082;52.650;8.116;2024-02-26T13:16:45;3.00;;;2.23;;
29534;SDS011;72082;52.650;8.116;2024-02-26T13:19:19;11.23;;;4.10;;
29534;SDS011;72082;52.650;8.116;2024-02-26T13:21:45;2.70;;;2.50;;
29534;SDS011;72082;52.650;8.116;2024-02-26T13:24:12;8.70;;;3.73;;
29534;SDS011;72082;52.650;8.116;2024-02-26T13:26:38;3.67;;;3.30;;
29534;SDS011;72082;52.650;8.116;2024-02-26T13:29:03;9.90;;;2.97;;
29534;SDS011;72082;52.650;8.116;2024-02-26T13:31:29;2.80;;;2.57;;
29534;SDS011;72082;52.650;8.116;2024-02-26T13:33:54;3.40;;;3.20;;
29534;SDS011;72082;52.650;8.116;2024-02-26T13:36:20;3.70;;;3.37;;
29534;SDS011;72082;52.650;8.116;2024-02-26T13:38:54;2.50;;;2.20;;
29534;SDS011;72082;52.650;8.116;2024-02-26T13:41:20;5.47;;;3.25;;
29534;SDS011;72082;52.650;8.116;2024-02-26T13:43:49;2.80;;;2.15;;
29534;SDS011;72082;52.650;8.116;2024-02-26T13:46:15;3.13;;;2.92;;
29534;SDS011;72082;52.650;8.116;2024-02-26T13:48:41;4.37;;;3.97;;
29534;SDS011;72082;52.650;8.116;2024-02-26T13:51:07;3.55;;;2.95;;
29534;SDS011;72082;52.650;8.116;2024-02-26T13:53:32;2.03;;;1.90;;
29534;SDS011;72082;52.650;8.116;2024-02-26T13:55:57;4.80;;;3.67;;
29534;SDS011;72082;52.650;8.116;2024-02-26T13:58:23;2.87;;;2.53;;
29534;SDS011;72082;52.650;8.116;2024-02-26T14:00:48;3.03;;;2.80;;
29534;SDS011;72082;52.650;8.116;2024-02-26T14:03:13;4.07;;;3.67;;
29534;SDS011;72082;52.650;8.116;2024-02-26T14:05:39;3.57;;;3.27;;
29534;SDS011;72082;52.650;8.116;2024-02-26T14:08:04;2.77;;;2.60;;
29534;SDS011;72082;52.650;8.116;2024-02-26T14:10:30;4.27;;;3.90;;
29534;SDS011;72082;52.650;8.116;2024-02-26T14:12:55;5.40;;;3.40;;
29534;SDS011;72082;52.650;8.116;2024-02-26T14:15:20;3.67;;;3.37;;
29534;SDS011;72082;52.650;8.116;2024-02-26T14:17:46;3.83;;;2.60;;
29534;SDS011;72082;52.650;8.116;2024-02-26T14:20:11;12.73;;;3.53;;
29534;SDS011;72082;52.650;8.116;2024-02-26T14:22:36;5.20;;;3.50;;
29534;SDS011;72082;52.650;8.116;2024-02-26T14:25:01;3.70;;;3.40;;
29534;SDS011;72082;52.650;8.116;2024-02-26T14:27:27;13.30;;;3.40;;
29534;SDS011;72082;52.650;8.116;2024-02-26T14:29:52;3.67;;;2.67;;
29534;SDS011;72082;52.650;8.116;2024-02-26T14:32:17;2.80;;;2.60;;
29534;SDS011;72082;52.650;8.116;2024-02-26T14:34:42;3.43;;;2.10;;
29534;SDS011;72082;52.650;8.116;2024-02-26T14:37:08;1.90;;;1.83;;
29534;SDS011;72082;52.650;8.116;2024-02-26T14:39:33;2.90;;;2.70;;
29534;SDS011;72082;52.650;8.116;2024-02-26T14:41:59;4.17;;;2.90;;
29534;SDS011;72082;52.650;8.116;2024-02-26T14:44:25;3.30;;;2.00;;
29534;SDS011;72082;52.650;8.116;2024-02-26T14:46:51;5.77;;;3.63;;